Time;durP1;ratioP1;P1;durP2;ratioP2;P2;SDS_P1;SDS_P2;PMS_P1;PMS_P2;Temp;Humidity;BMP_temperature;BMP_pressure;BME280_temperature;BME280_humidity;BME280_pressure;Samples;Min_cycle;Max_cycle;Signal;HPM_P1;HPM_P2
2023/01/11 00:01:31;;;;;;;;;;;;;;;3.05;92.35;94669.25;5155622;27;987;-51
2023/01/11 00:03:57;;;;;;;;;;;;;;;3.16;91.97;94668.38;5155722;27;971;-51
2023/01/11 00:06:23;;;;;;;;;;;;;;;3.24;91.50;94668.56;5155005;27;1913;-52
2023/01/11 00:08:49;;;;;;;;;;;;;;;3.27;91.50;94663.84;5155596;27;956;-52
2023/01/11 00:11:15;;;;;;;;;;;;;;;3.26;91.82;94664.84;5155464;27;1031;-52
2023/01/11 00:13:43;;;;;;;;;;;;;;;3.30;91.21;94666.25;5155500;27;1046;-51
2023/01/11 00:16:10;;;;;;;;;;;;;;;3.39;91.25;94667.25;5155194;27;1222;-52
2023/01/11 00:18:37;;;;;;;;;;;;;;;3.43;90.63;94670.47;5155317;27;1038;-52
2023/01/11 00:21:06;;;;;;;;;;;;;;;3.32;90.85;94669.59;5155308;27;1020;-52
2023/01/11 00:23:34;;;;;;;;;;;;;;;3.05;90.56;94671.88;5154458;27;1268;-52
2023/01/11 00:26:11;;;;;;;;;;;;;;;2.84;92.09;94672.69;5154894;27;1986;-52
2023/01/11 00:28:37;;;;;;;;;;;;;;;2.90;91.75;94672.22;5155184;27;1868;-52
2023/01/11 00:31:04;;;;;;;;;;;;;;;2.96;91.94;94673.50;5155276;27;1053;-52
2023/01/11 00:33:30;;;;;;;;;;;;;;;2.93;91.52;94677.22;5155118;27;1039;-52
2023/01/11 00:35:56;;;;;;;;;;;;;;;2.79;91.79;94674.03;5154703;27;1215;-51
2023/01/11 00:49:22;;;;;;;;;;;;;;;2.87;92.06;94669.81;5155135;27;1035;-51
2023/01/11 00:51:48;;;;;;;;;;;;;;;2.85;91.65;94674.38;5154299;27;1027;-52
2023/01/11 00:54:14;;;;;;;;;;;;;;;2.86;92.00;94677.84;5154500;27;1067;-52
2023/01/11 00:56:40;;;;;;;;;;;;;;;2.93;92.05;94679.84;5154869;27;979;-52
2023/01/11 00:59:06;;;;;;;;;;;;;;;2.90;91.56;94677.47;5155140;27;957;-52
2023/01/11 01:01:32;;;;;;;;;;;;;;;2.91;91.87;94673.88;5155066;27;971;-52
2023/01/11 01:03:59;;;;;;;;;;;;;;;2.86;91.82;94670.75;5155014;27;1035;-51
2023/01/11 01:06:25;;;;;;;;;;;;;;;2.78;91.99;94669.72;5154887;27;1914;-52
2023/01/11 01:08:51;;;;;;;;;;;;;;;2.76;92.18;94661.94;5154904;27;1021;-52
2023/01/11 01:11:17;;;;;;;;;;;;;;;2.54;92.30;94668.97;5136445;27;994;-51
2023/01/11 01:16:31;;;;;;;;;;;;;;;2.56;93.02;94667.97;5154897;27;1011;-52
2023/01/11 01:18:57;;;;;;;;;;;;;;;2.71;93.39;94669.38;5154882;27;1023;-52
2023/01/11 01:21:24;;;;;;;;;;;;;;;2.82;92.32;94671.97;5155715;27;1027;-51
2023/01/11 01:23:50;;;;;;;;;;;;;;;2.84;91.77;94672.69;5157563;27;1206;-52
2023/01/11 01:26:16;;;;;;;;;;;;;;;2.80;91.71;94676.53;5158791;27;1913;-52
2023/01/11 01:28:42;;;;;;;;;;;;;;;2.97;91.77;94680.44;5158694;27;964;-52
2023/01/11 01:31:08;;;;;;;;;;;;;;;3.02;91.66;94680.91;5158513;27;1052;-52
2023/01/11 01:33:35;;;;;;;;;;;;;;;3.02;91.52;94678.28;5158570;27;1031;-52
2023/01/11 01:36:02;;;;;;;;;;;;;;;2.93;91.68;94679.84;5158466;27;973;-51
2023/01/11 01:38:28;;;;;;;;;;;;;;;2.70;91.27;94675.63;5158243;27;1003;-51
2023/01/11 01:40:55;;;;;;;;;;;;;;;2.49;92.62;94678.22;5158281;27;1109;-52
2023/01/11 01:43:22;;;;;;;;;;;;;;;2.44;92.88;94678.56;5158264;27;1081;-51
2023/01/11 01:45:51;;;;;;;;;;;;;;;2.32;93.89;94667.19;5158101;27;1984;-52
2023/01/11 01:48:20;;;;;;;;;;;;;;;2.48;93.71;94677.34;5158257;27;1062;-51
2023/01/11 01:50:54;;;;;;;;;;;;;;;2.54;93.17;94673.38;5158214;27;1038;-52
2023/01/11 01:53:22;;;;;;;;;;;;;;;2.67;92.72;94678.50;5158271;27;1034;-52
2023/01/11 01:55:51;;;;;;;;;;;;;;;2.72;92.60;94678.97;5158068;27;1031;-52
2023/01/11 01:58:19;;;;;;;;;;;;;;;2.74;92.10;94667.31;5139792;27;1188;-51
2023/01/11 02:00:45;;;;;;;;;;;;;;;2.68;91.87;94682.84;5139671;27;1093;-52
2023/01/11 02:03:15;;;;;;;;;;;;;;;2.66;91.56;94677.69;5157891;27;1039;-52
2023/01/11 02:05:41;;;;;;;;;;;;;;;2.61;91.33;94681.66;5157733;27;1909;-51
2023/01/11 02:08:10;;;;;;;;;;;;;;;2.47;92.18;94675.69;5158073;27;1008;-52
2023/01/11 02:10:36;;;;;;;;;;;;;;;2.41;91.87;94681.47;5157691;27;1003;-51
2023/01/11 02:13:04;;;;;;;;;;;;;;;2.41;92.70;94684.09;5157730;27;1015;-51
2023/01/11 02:15:30;;;;;;;;;;;;;;;2.53;92.25;94684.91;5157684;27;1054;-51
2023/01/11 02:17:56;;;;;;;;;;;;;;;2.58;92.36;94680.13;5157695;27;1070;-51
2023/01/11 02:20:22;;;;;;;;;;;;;;;2.57;92.13;94683.69;5139159;27;995;-52
2023/01/11 02:22:57;;;;;;;;;;;;;;;2.55;91.94;94685.63;5157742;27;1109;-51
2023/01/11 02:25:29;;;;;;;;;;;;;;;2.56;92.20;94686.47;5156457;27;1909;-52
2023/01/11 02:27:55;;;;;;;;;;;;;;;2.54;92.07;94683.94;5157583;27;952;-51
2023/01/11 02:30:24;;;;;;;;;;;;;;;2.51;91.08;94682.41;5157427;27;964;-51
2023/01/11 02:32:53;;;;;;;;;;;;;;;2.29;90.42;94685.06;5155990;27;1060;-52
2023/01/11 02:35:40;;;;;;;;;;;;;;;1.97;91.93;94677.06;5157497;27;1043;-51
2023/01/11 02:38:14;;;;;;;;;;;;;;;1.93;92.62;94674.66;5157399;27;1010;-52
2023/01/11 02:40:52;;;;;;;;;;;;;;;2.11;92.54;94682.94;5157112;27;1047;-52
2023/01/11 02:46:32;;;;;;;;;;;;;;;2.15;91.66;94686.19;5156792;27;1922;-52
2023/01/11 02:49:07;;;;;;;;;;;;;;;2.12;92.75;94681.13;5156962;27;1047;-51
2023/01/11 02:51:42;;;;;;;;;;;;;;;2.27;92.57;94687.00;5156943;27;964;-51
2023/01/11 02:54:09;;;;;;;;;;;;;;;2.33;92.10;94690.00;5157165;27;1079;-51
2023/01/11 02:56:38;;;;;;;;;;;;;;;2.35;91.93;94687.22;5156808;27;1020;-51
2023/01/11 02:59:06;;;;;;;;;;;;;;;2.33;91.90;94689.13;5156819;27;1055;-52
2023/01/11 03:01:42;;;;;;;;;;;;;;;2.31;91.39;94691.88;5156712;27;1933;-51
2023/01/11 03:04:20;;;;;;;;;;;;;;;2.19;90.61;94689.41;5156745;27;1020;-51
2023/01/11 03:06:47;;;;;;;;;;;;;;;2.02;90.97;94698.66;5156677;27;1976;-52
2023/01/11 03:09:18;;;;;;;;;;;;;;;1.87;91.69;94705.94;5156811;27;1023;-51
2023/01/11 03:14:43;;;;;;;;;;;;;;;2.14;93.06;94709.09;5156347;27;1023;-51
2023/01/11 03:17:16;;;;;;;;;;;;;;;2.17;92.61;94707.16;5156393;27;1028;-51
2023/01/11 03:19:46;;;;;;;;;;;;;;;2.09;92.02;94719.16;5156480;27;1063;-52
2023/01/11 03:22:31;;;;;;;;;;;;;;;2.14;91.88;94719.63;5156522;27;992;-51
2023/01/11 03:25:04;;;;;;;;;;;;;;;2.14;91.50;94724.03;5155197;27;1988;-51
2023/01/11 03:27:31;;;;;;;;;;;;;;;2.17;92.70;94726.44;5156428;27;1026;-51
2023/01/11 03:30:14;;;;;;;;;;;;;;;2.28;92.24;94723.81;5156460;27;959;-52
2023/01/11 03:32:51;;;;;;;;;;;;;;;2.31;91.71;94722.72;5156144;27;1103;-51
2023/01/11 03:35:17;;;;;;;;;;;;;;;2.39;92.25;94727.38;5156175;27;1024;-52
2023/01/11 03:37:49;;;;;;;;;;;;;;;2.48;92.22;94730.13;5156064;27;972;-52
2023/01/11 03:40:17;;;;;;;;;;;;;;;2.57;92.49;94733.00;5156208;27;969;-52
2023/01/11 03:45:32;;;;;;;;;;;;;;;2.31;91.86;94735.91;5155248;27;1898;-52
2023/01/11 03:48:00;;;;;;;;;;;;;;;2.31;92.78;94733.28;5155838;27;1032;-52
2023/01/11 03:50:27;;;;;;;;;;;;;;;2.45;92.62;94730.38;5155988;27;913;-52
2023/01/11 03:52:54;;;;;;;;;;;;;;;2.47;92.53;94739.03;5155916;27;991;-52
2023/01/11 03:55:23;;;;;;;;;;;;;;;2.54;92.97;94742.00;5155825;27;1052;-51
2023/01/11 03:57:50;;;;;;;;;;;;;;;2.49;93.53;94739.72;5155815;27;961;-51
2023/01/11 04:00:19;;;;;;;;;;;;;;;2.49;93.86;94744.19;5155705;27;1032;-52
2023/01/11 04:02:45;;;;;;;;;;;;;;;2.63;93.48;94741.25;5155621;27;1035;-52
2023/01/11 04:05:11;;;;;;;;;;;;;;;2.70;93.24;94738.97;5155747;27;1985;-51
2023/01/11 04:07:37;;;;;;;;;;;;;;;2.76;92.87;94746.41;5155413;27;1078;-52
2023/01/11 04:10:04;;;;;;;;;;;;;;;2.78;93.11;94749.75;5155549;27;1074;-52
2023/01/11 04:12:30;;;;;;;;;;;;;;;2.83;92.71;94752.88;5155488;27;999;-52
2023/01/11 04:14:56;;;;;;;;;;;;;;;2.87;93.19;94745.56;5155346;27;1051;-52
2023/01/11 04:17:22;;;;;;;;;;;;;;;2.90;92.96;94751.41;5155213;27;1036;-52
2023/01/11 04:19:48;;;;;;;;;;;;;;;2.87;93.15;94750.84;5155585;27;1038;-52
2023/01/11 04:22:14;;;;;;;;;;;;;;;2.91;93.06;94749.63;5155591;27;1038;-52
2023/01/11 04:24:40;;;;;;;;;;;;;;;2.89;92.61;94752.38;5154309;27;1558;-52
2023/01/11 04:27:06;;;;;;;;;;;;;;;2.76;92.12;94750.84;5155219;27;2000;-52
2023/01/11 04:29:32;;;;;;;;;;;;;;;2.52;93.35;94755.34;5155262;27;1034;-52
2023/01/11 04:31:58;;;;;;;;;;;;;;;2.54;94.08;94763.97;5155161;27;1043;-52
2023/01/11 04:34:24;;;;;;;;;;;;;;;2.70;93.79;94768.03;5155394;27;965;-52
2023/01/11 04:36:50;;;;;;;;;;;;;;;2.67;93.70;94774.38;5155338;27;998;-52
2023/01/11 04:39:16;;;;;;;;;;;;;;;2.65;93.60;94768.38;5154961;27;1074;-52
2023/01/11 04:44:27;;;;;;;;;;;;;;;2.47;94.07;94786.53;5154887;27;1083;-52
2023/01/11 04:46:53;;;;;;;;;;;;;;;2.51;94.19;94785.31;5155260;27;1905;-52
2023/01/11 04:49:19;;;;;;;;;;;;;;;2.60;94.29;94783.75;5155162;27;943;-52
2023/01/11 04:51:45;;;;;;;;;;;;;;;2.64;93.90;94787.00;5155035;27;1051;-51
2023/01/11 04:54:11;;;;;;;;;;;;;;;2.70;94.04;94794.41;5154979;27;1019;-52
2023/01/11 04:56:37;;;;;;;;;;;;;;;2.58;94.18;94787.47;5156429;27;1040;-52
2023/01/11 04:59:03;;;;;;;;;;;;;;;2.52;94.56;94792.28;5159098;27;1039;-52
2023/01/11 05:01:29;;;;;;;;;;;;;;;2.58;94.38;94795.38;5140851;27;983;-52
2023/01/11 05:03:55;;;;;;;;;;;;;;;2.51;94.83;94801.16;5140953;27;967;-52
2023/01/11 05:06:22;;;;;;;;;;;;;;;2.52;94.76;94802.84;5159054;27;2000;-52
2023/01/11 05:08:48;;;;;;;;;;;;;;;2.42;95.11;94808.94;5159148;27;1007;-52
2023/01/11 05:11:14;;;;;;;;;;;;;;;2.44;95.35;94809.66;5158969;27;1083;-52
2023/01/11 05:13:40;;;;;;;;;;;;;;;2.41;95.44;94810.75;5158742;27;1047;-52
2023/01/11 05:16:08;;;;;;;;;;;;;;;2.45;95.27;94811.38;5158794;27;1077;-51
2023/01/11 05:18:34;;;;;;;;;;;;;;;2.48;94.97;94817.22;5140644;27;1006;-52
2023/01/11 05:21:00;;;;;;;;;;;;;;;2.44;94.78;94815.78;5158910;27;1059;-51
2023/01/11 05:23:26;;;;;;;;;;;;;;;2.46;95.24;94813.03;5157653;27;1178;-49
2023/01/11 05:25:52;;;;;;;;;;;;;;;2.57;95.30;94813.03;5158612;27;1901;-51
2023/01/11 05:28:18;;;;;;;;;;;;;;;2.60;94.81;94814.56;5158601;27;1024;-52
2023/01/11 05:30:49;;;;;;;;;;;;;;;2.66;94.55;94825.50;5158596;27;1051;-51
2023/01/11 05:33:15;;;;;;;;;;;;;;;2.56;94.67;94828.97;5158822;27;1045;-51
2023/01/11 05:35:41;;;;;;;;;;;;;;;2.58;94.59;94822.63;5140104;27;1071;-51
2023/01/11 05:38:07;;;;;;;;;;;;;;;2.61;94.77;94825.00;5158521;27;1015;-51
2023/01/11 05:40:33;;;;;;;;;;;;;;;2.67;94.66;94832.44;5158385;27;1038;-51
2023/01/11 05:42:59;;;;;;;;;;;;;;;2.73;94.23;94836.41;5158323;27;1194;-51
2023/01/11 05:45:28;;;;;;;;;;;;;;;2.75;94.12;94834.47;5139872;27;1988;-50
2023/01/11 05:47:54;;;;;;;;;;;;;;;2.82;93.78;94838.31;5158243;27;1055;-51
2023/01/11 05:50:21;;;;;;;;;;;;;;;2.80;93.16;94832.31;5157991;27;1115;-51
2023/01/11 05:52:47;;;;;;;;;;;;;;;2.77;93.13;94829.09;5158164;27;1944;-51
2023/01/11 05:55:13;;;;;;;;;;;;;;;2.77;93.18;94848.44;5158149;27;1081;-51
2023/01/11 05:57:42;;;;;;;;;;;;;;;2.74;92.86;94844.19;5157966;27;1092;-50
2023/01/11 06:00:09;;;;;;;;;;;;;;;2.65;92.63;94852.00;5158236;27;961;-50
2023/01/11 06:02:36;;;;;;;;;;;;;;;2.61;92.96;94850.56;5157890;27;1035;-50
2023/01/11 06:05:02;;;;;;;;;;;;;;;2.48;93.16;94851.50;5157859;27;1973;-51
2023/01/11 06:07:28;;;;;;;;;;;;;;;2.43;92.77;94858.97;5157481;27;1106;-51
2023/01/11 06:09:54;;;;;;;;;;;;;;;2.32;93.77;94861.59;5157819;27;1063;-51
2023/01/11 06:12:20;;;;;;;;;;;;;;;2.43;93.87;94858.97;5157567;27;1028;-51
2023/01/11 06:14:46;;;;;;;;;;;;;;;2.52;93.06;94860.91;5157919;27;1067;-51
2023/01/11 06:17:12;;;;;;;;;;;;;;;2.53;93.31;94864.38;5157921;27;1044;-52
2023/01/11 06:19:40;;;;;;;;;;;;;;;2.58;93.15;94869.28;5139515;27;985;-51
2023/01/11 06:22:06;;;;;;;;;;;;;;;2.47;91.50;94870.97;5157590;27;1035;-51
2023/01/11 06:24:32;;;;;;;;;;;;;;;2.28;92.07;94882.09;5156401;27;1470;-51
2023/01/11 06:26:58;;;;;;;;;;;;;;;2.20;92.10;94881.00;5157381;27;1909;-51
2023/01/11 06:29:24;;;;;;;;;;;;;;;2.31;92.95;94891.56;5157613;27;1036;-52
2023/01/11 06:31:50;;;;;;;;;;;;;;;2.48;91.73;94899.03;5157583;27;1042;-51
2023/01/11 06:34:16;;;;;;;;;;;;;;;2.66;90.85;94899.41;5157326;27;1031;-51
2023/01/11 06:36:42;;;;;;;;;;;;;;;2.71;90.77;94896.41;5157374;27;1041;-52
2023/01/11 06:39:09;;;;;;;;;;;;;;;2.75;90.29;94895.19;5157288;27;1035;-51
2023/01/11 06:41:35;;;;;;;;;;;;;;;2.53;89.40;94907.44;5157045;27;1011;-51
2023/01/11 06:44:01;;;;;;;;;;;;;;;2.35;89.76;94911.47;5157396;27;1023;-51
2023/01/11 06:46:27;;;;;;;;;;;;;;;2.36;91.22;94914.97;5156797;27;1910;-51
2023/01/11 06:48:53;;;;;;;;;;;;;;;2.58;90.61;94922.06;5157201;27;958;-51
2023/01/11 06:51:19;;;;;;;;;;;;;;;2.75;90.29;94918.97;5157057;27;1023;-51
2023/01/11 06:53:45;;;;;;;;;;;;;;;2.87;89.83;94919.81;5156995;27;965;-51
2023/01/11 06:56:12;;;;;;;;;;;;;;;2.87;89.84;94917.19;5156875;27;965;-50
2023/01/11 06:58:39;;;;;;;;;;;;;;;2.91;90.21;94919.44;5157116;27;1043;-49
2023/01/11 07:01:05;;;;;;;;;;;;;;;3.02;89.47;94926.53;5156927;27;1063;-52
2023/01/11 07:03:31;;;;;;;;;;;;;;;3.19;89.09;94921.72;5138271;27;1036;-52
2023/01/11 07:05:57;;;;;;;;;;;;;;;3.30;88.02;94919.91;5156765;27;1984;-52
2023/01/11 07:08:23;;;;;;;;;;;;;;;3.80;85.76;94930.00;5156587;27;1103;-51
2023/01/11 07:10:50;;;;;;;;;;;;;;;6.79;74.25;94935.81;5156571;27;1043;-52
2023/01/11 07:13:16;;;;;;;;;;;;;;;8.92;64.08;94935.53;5156881;27;992;-52
2023/01/11 07:15:49;;;;;;;;;;;;;;;11.10;55.58;94946.34;5156598;27;1027;-52
2023/01/11 07:18:16;;;;;;;;;;;;;;;8.65;61.03;94943.63;5156412;27;1024;-52
2023/01/11 07:20:42;;;;;;;;;;;;;;;6.60;69.31;94937.56;5155924;27;1048;-51
2023/01/11 07:23:09;;;;;;;;;;;;;;;5.47;75.52;94935.34;5156363;27;1114;-51
2023/01/11 07:25:35;;;;;;;;;;;;;;;5.24;77.38;94930.22;5154349;27;2004;-51
2023/01/11 07:28:03;;;;;;;;;;;;;;;5.50;77.35;94926.25;5156522;27;1038;-51
2023/01/11 07:30:31;;;;;;;;;;;;;;;9.30;64.92;94935.25;5156350;27;1034;-51
2023/01/11 07:32:57;;;;;;;;;;;;;;;13.73;49.23;94946.59;5156199;27;1027;-52
2023/01/11 07:35:24;;;;;;;;;;;;;;;16.12;43.73;94961.50;5156066;27;1556;-52
2023/01/11 07:37:50;;;;;;;;;;;;;;;17.23;40.90;94982.00;5156086;27;989;-51
2023/01/11 07:40:17;;;;;;;;;;;;;;;17.20;40.72;94977.00;5156012;27;1110;-51
2023/01/11 07:46:06;;;;;;;;;;;;;;;15.38;41.60;94989.00;5132552;27;1972;-52
2023/01/11 07:48:32;;;;;;;;;;;;;;;14.76;44.07;94987.78;5114469;28;1092;-51
2023/01/11 07:50:58;;;;;;;;;;;;;;;13.77;45.73;94983.66;5114800;28;1037;-51
2023/01/11 07:53:25;;;;;;;;;;;;;;;10.34;54.37;94964.38;5114641;28;1058;-51
2023/01/11 07:55:51;;;;;;;;;;;;;;;7.70;65.30;94954.69;5114657;28;964;-50
2023/01/11 07:58:17;;;;;;;;;;;;;;;5.87;74.03;94992.81;5114517;28;966;-49
2023/01/11 08:00:44;;;;;;;;;;;;;;;4.72;80.56;94998.28;5114458;28;1036;-49
2023/01/11 08:03:10;;;;;;;;;;;;;;;4.25;84.42;95011.00;5114264;28;1099;-50
2023/01/11 08:05:36;;;;;;;;;;;;;;;3.94;85.62;95002.94;5114374;28;1909;-50
2023/01/11 08:08:03;;;;;;;;;;;;;;;3.75;88.25;95006.22;5114461;28;999;-50
2023/01/11 08:10:29;;;;;;;;;;;;;;;3.60;90.19;95010.09;5114374;28;1031;-50
2023/01/11 08:15:43;;;;;;;;;;;;;;;3.63;88.79;95010.69;5114011;28;957;-51
2023/01/11 08:18:10;;;;;;;;;;;;;;;3.50;90.32;95021.41;5114143;28;1035;-50
2023/01/11 08:20:37;;;;;;;;;;;;;;;3.42;91.05;95018.53;5114304;28;1071;-51
2023/01/11 08:23:04;;;;;;;;;;;;;;;3.42;90.99;95021.16;5114086;28;1048;-51
2023/01/11 08:25:30;;;;;;;;;;;;;;;3.49;90.56;95016.22;5096549;28;1989;-51
2023/01/11 08:28:00;;;;;;;;;;;;;;;3.50;90.85;95023.19;5114087;28;977;-50
2023/01/11 08:30:27;;;;;;;;;;;;;;;3.65;91.56;95024.63;5114072;28;965;-50
2023/01/11 08:32:53;;;;;;;;;;;;;;;3.78;88.91;95032.44;5113975;28;1008;-51
2023/01/11 08:35:20;;;;;;;;;;;;;;;3.81;88.81;95031.34;5096001;28;966;-50
2023/01/11 08:37:46;;;;;;;;;;;;;;;4.05;89.10;95037.31;5113771;28;1036;-50
2023/01/11 08:40:12;;;;;;;;;;;;;;;4.24;86.68;95041.09;5113994;28;966;-50
2023/01/11 08:42:38;;;;;;;;;;;;;;;4.33;88.21;95032.41;5113781;28;1189;-50
2023/01/11 08:45:05;;;;;;;;;;;;;;;4.44;88.17;95032.38;5113684;28;1989;-51
2023/01/11 08:47:31;;;;;;;;;;;;;;;4.71;87.71;95040.81;5125761;28;1091;-51
2023/01/11 08:49:57;;;;;;;;;;;;;;;4.84;86.88;95050.25;5134300;28;1143;-51
2023/01/11 08:52:23;;;;;;;;;;;;;;;5.34;83.91;95048.72;5134395;28;1335;-51
2023/01/11 08:54:49;;;;;;;;;;;;;;;5.68;83.40;95039.53;5134404;28;1024;-51
2023/01/11 08:57:15;;;;;;;;;;;;;;;5.73;83.22;95043.59;5134280;28;1072;-50
2023/01/11 08:59:41;;;;;;;;;;;;;;;6.04;80.75;95049.72;5115953;28;1443;-51
2023/01/11 09:02:08;;;;;;;;;;;;;;;6.27;80.37;95046.84;5134173;28;1011;-50
2023/01/11 09:04:34;;;;;;;;;;;;;;;6.08;82.98;95050.31;5134269;28;941;-50
2023/01/11 09:07:00;;;;;;;;;;;;;;;6.22;82.49;95048.09;5134295;28;1906;-50
2023/01/11 09:09:26;;;;;;;;;;;;;;;6.43;80.93;95055.09;5134018;28;1035;-51
2023/01/11 09:11:52;;;;;;;;;;;;;;;6.37;80.21;95053.00;5134094;28;1071;-50
2023/01/11 09:14:19;;;;;;;;;;;;;;;6.30;81.46;95055.38;5134075;28;964;-51
2023/01/11 09:16:45;;;;;;;;;;;;;;;6.00;82.97;95049.16;5134283;28;1014;-51
2023/01/11 09:19:12;;;;;;;;;;;;;;;6.43;83.26;95049.78;5134015;28;1090;-51
2023/01/11 09:21:38;;;;;;;;;;;;;;;6.51;81.15;95054.44;5133986;28;1048;-51
2023/01/11 09:24:04;;;;;;;;;;;;;;;6.58;81.67;95056.41;5133931;28;1481;-50
2023/01/11 09:26:30;;;;;;;;;;;;;;;6.39;82.76;95053.69;5132817;28;1983;-51
2023/01/11 09:28:56;;;;;;;;;;;;;;;6.23;83.10;95060.38;5133899;27;1130;-50
2023/01/11 09:31:22;;;;;;;;;;;;;;;5.98;84.83;95056.41;5133908;27;1079;-51
2023/01/11 09:33:49;;;;;;;;;;;;;;;6.10;84.67;95056.31;5134101;27;1054;-50
2023/01/11 09:36:17;;;;;;;;;;;;;;;6.70;83.24;95062.41;5133871;27;1004;-51
2023/01/11 09:38:43;;;;;;;;;;;;;;;7.21;80.18;95058.59;5133902;27;1351;-51
2023/01/11 09:41:10;;;;;;;;;;;;;;;7.10;80.91;95056.09;5133932;27;1024;-52
2023/01/11 09:43:42;;;;;;;;;;;;;;;7.12;79.69;95056.78;5136841;27;1034;-50
2023/01/11 09:46:10;;;;;;;;;;;;;;;7.22;78.91;95052.28;5138158;27;1926;-51
2023/01/11 09:48:42;;;;;;;;;;;;;;;6.91;81.01;95059.59;5158214;27;1090;-51
2023/01/11 09:51:12;;;;;;;;;;;;;;;6.61;83.09;95055.28;5158306;27;1082;-51
2023/01/11 09:53:39;;;;;;;;;;;;;;;6.48;83.38;95057.34;5158020;27;1035;-50
2023/01/11 09:56:10;;;;;;;;;;;;;;;6.45;84.69;95054.00;5158132;27;970;-50
2023/01/11 09:58:37;;;;;;;;;;;;;;;6.50;84.14;95050.09;5157975;27;1027;-51
2023/01/11 10:01:10;;;;;;;;;;;;;;;6.22;83.76;95045.44;5158101;27;1113;-51
2023/01/11 10:03:57;;;;;;;;;;;;;;;6.40;84.97;95042.94;5158037;27;976;-51
2023/01/11 10:06:43;;;;;;;;;;;;;;;6.69;84.60;95050.09;5157711;27;1996;-51
2023/01/11 10:09:21;;;;;;;;;;;;;;;7.18;82.16;95048.22;5157907;27;1015;-52
2023/01/11 10:12:11;;;;;;;;;;;;;;;7.64;78.55;95053.69;5158096;27;1008;-52
2023/01/11 10:14:42;;;;;;;;;;;;;;;7.57;77.95;95047.28;5157805;27;1026;-51
2023/01/11 10:17:24;;;;;;;;;;;;;;;7.48;77.78;95049.00;5157688;27;920;-51
2023/01/11 10:19:56;;;;;;;;;;;;;;;7.51;80.20;95043.41;5157822;27;1062;-51
2023/01/11 10:22:26;;;;;;;;;;;;;;;7.59;78.06;95038.19;5157595;27;1117;-52
2023/01/11 10:25:00;;;;;;;;;;;;;;;7.87;78.18;95034.72;5156668;27;1183;-52
2023/01/11 10:27:36;;;;;;;;;;;;;;;8.13;75.38;95029.53;5157373;27;1978;-51
2023/01/11 10:30:32;;;;;;;;;;;;;;;8.27;73.87;95034.38;5157460;27;1102;-52
2023/01/11 10:42:10;;;;;;;;;;;;;;;8.44;77.24;95039.88;5117894;27;1063;-51
2023/01/11 10:44:56;;;;;;;;;;;;;;;8.20;77.01;95036.78;5157114;27;1094;-52
2023/01/11 10:47:26;;;;;;;;;;;;;;;7.99;78.58;95033.53;5156795;27;1901;-51
2023/01/11 10:50:01;;;;;;;;;;;;;;;7.74;79.43;95025.25;5157317;27;976;-52
2023/01/11 10:52:46;;;;;;;;;;;;;;;7.79;79.97;95022.13;5156944;27;963;-52
2023/01/11 10:55:15;;;;;;;;;;;;;;;8.08;78.16;95031.78;5156056;27;1028;-51
2023/01/11 10:57:44;;;;;;;;;;;;;;;8.00;79.01;95038.69;5156843;27;1032;-51
2023/01/11 11:00:16;;;;;;;;;;;;;;;7.96;80.56;95033.81;5156987;27;1314;-52
2023/01/11 11:02:42;;;;;;;;;;;;;;;7.82;78.84;95030.66;5156705;27;1085;-51
2023/01/11 11:05:27;;;;;;;;;;;;;;;8.12;77.90;95023.38;5156760;27;1902;-51
2023/01/11 11:07:59;;;;;;;;;;;;;;;8.18;77.87;95029.94;5156729;27;1098;-52
2023/01/11 11:10:28;;;;;;;;;;;;;;;8.15;79.61;95027.56;5156637;27;1031;-51
2023/01/11 11:13:14;;;;;;;;;;;;;;;8.11;76.10;95028.84;5156709;27;977;-51
2023/01/11 11:15:45;;;;;;;;;;;;;;;8.08;79.33;95032.66;5104190;27;1182;-52
2023/01/11 11:18:11;;;;;;;;;;;;;;;8.21;76.49;95026.94;5156750;27;1028;-51
2023/01/11 11:20:38;;;;;;;;;;;;;;;8.45;75.51;95025.59;5156546;27;998;-52
2023/01/11 11:23:04;;;;;;;;;;;;;;;8.57;75.91;95024.34;5156544;27;965;-50
2023/01/11 11:25:31;;;;;;;;;;;;;;;8.67;75.05;95022.47;5155383;27;2000;-50
2023/01/11 11:28:17;;;;;;;;;;;;;;;8.71;69.51;95023.84;5156251;27;1121;-51
2023/01/11 11:30:45;;;;;;;;;;;;;;;8.60;65.15;95016.91;5155517;27;2016;-51
2023/01/11 11:33:27;;;;;;;;;;;;;;;8.63;66.23;95022.91;5156202;27;1016;-51
2023/01/11 11:35:58;;;;;;;;;;;;;;;8.68;64.55;95013.47;5156259;27;1018;-51
2023/01/11 11:38:26;;;;;;;;;;;;;;;8.68;65.21;95013.47;5156080;27;1039;-51
2023/01/11 11:41:06;;;;;;;;;;;;;;;8.70;67.26;95019.47;5156365;27;971;-51
2023/01/11 11:43:33;;;;;;;;;;;;;;;8.81;61.05;95012.25;5137673;27;1066;-50
2023/01/11 11:46:00;;;;;;;;;;;;;;;8.82;63.06;95013.91;5156068;27;1986;-50
2023/01/11 11:48:28;;;;;;;;;;;;;;;8.82;63.94;95020.13;5155785;27;1217;-51
2023/01/11 11:50:56;;;;;;;;;;;;;;;8.71;64.22;95015.84;5155907;27;920;-51
2023/01/11 11:53:29;;;;;;;;;;;;;;;8.52;66.41;95021.34;5155749;27;1017;-51
2023/01/11 11:55:55;;;;;;;;;;;;;;;8.55;62.60;95011.19;5155839;27;1011;-52
2023/01/11 11:58:23;;;;;;;;;;;;;;;8.46;64.53;95013.91;5155848;27;1059;-51
2023/01/11 12:00:50;;;;;;;;;;;;;;;8.33;65.36;95017.78;5155725;27;1039;-52
2023/01/11 12:03:20;;;;;;;;;;;;;;;8.43;67.49;95017.75;5155712;27;909;-52
2023/01/11 12:05:54;;;;;;;;;;;;;;;8.39;67.24;95022.50;5155171;27;2000;-52
2023/01/11 12:08:23;;;;;;;;;;;;;;;8.29;68.47;95016.41;5155733;27;1003;-51
2023/01/11 12:10:56;;;;;;;;;;;;;;;8.27;67.26;95017.53;5155449;27;1243;-52
2023/01/11 12:13:27;;;;;;;;;;;;;;;8.24;67.73;95017.84;5155587;27;959;-52
2023/01/11 12:16:19;;;;;;;;;;;;;;;8.24;68.88;95016.00;5155534;27;1034;-52
2023/01/11 12:18:46;;;;;;;;;;;;;;;8.06;66.84;95023.94;5150921;27;1158;-52
2023/01/11 12:21:20;;;;;;;;;;;;;;;7.90;67.55;95023.78;5155352;27;1035;-52
2023/01/11 12:23:47;;;;;;;;;;;;;;;7.77;70.02;95026.78;5154449;27;1579;-52
2023/01/11 12:26:13;;;;;;;;;;;;;;;7.76;68.88;95022.44;5155392;27;1888;-50
2023/01/11 12:28:45;;;;;;;;;;;;;;;7.73;67.13;95025.41;5155151;27;1062;-52
2023/01/11 12:31:30;;;;;;;;;;;;;;;7.70;68.74;95023.00;5155502;27;956;-51
2023/01/11 12:34:08;;;;;;;;;;;;;;;7.57;70.35;95029.53;5155348;27;965;-52
2023/01/11 12:36:37;;;;;;;;;;;;;;;7.40;69.69;95030.28;5155141;27;1070;-51
2023/01/11 12:39:05;;;;;;;;;;;;;;;7.47;69.87;95034.00;5154939;27;1082;-51
2023/01/11 12:41:52;;;;;;;;;;;;;;;7.42;69.90;95042.44;5155302;27;1074;-52
2023/01/11 12:44:37;;;;;;;;;;;;;;;7.50;71.53;95043.53;5155273;27;1051;-52
2023/01/11 12:47:03;;;;;;;;;;;;;;;7.55;69.42;95047.44;5154828;27;1901;-52
2023/01/11 12:49:44;;;;;;;;;;;;;;;7.41;70.20;95055.88;5155004;27;972;-52
2023/01/11 12:52:29;;;;;;;;;;;;;;;7.30;70.09;95054.22;5155026;27;1035;-52
2023/01/11 12:55:19;;;;;;;;;;;;;;;7.15;71.22;95059.16;5155192;27;1024;-52
2023/01/11 12:58:21;;;;;;;;;;;;;;;7.10;70.98;95065.88;5154848;27;1085;-52
2023/01/11 13:00:49;;;;;;;;;;;;;;;6.99;71.67;95067.69;5151236;27;1556;-51
2023/01/11 13:03:27;;;;;;;;;;;;;;;6.99;71.96;95067.69;5155105;27;1062;-52
2023/01/11 13:06:11;;;;;;;;;;;;;;;7.06;71.84;95075.97;5154956;27;1913;-52
2023/01/11 13:09:02;;;;;;;;;;;;;;;7.01;72.45;95087.00;5155212;27;1002;-51
2023/01/11 13:11:44;;;;;;;;;;;;;;;6.99;73.35;95085.47;5154761;27;1078;-52
2023/01/11 13:14:25;;;;;;;;;;;;;;;7.06;73.35;95088.41;5154864;27;1122;-52
2023/01/11 13:16:54;;;;;;;;;;;;;;;6.86;71.24;95084.94;5155134;27;956;-52
2023/01/11 13:19:25;;;;;;;;;;;;;;;6.89;69.50;95088.16;5158783;27;1044;-51
2023/01/11 13:21:53;;;;;;;;;;;;;;;6.86;70.97;95088.41;5158848;27;1094;-51
2023/01/11 13:24:28;;;;;;;;;;;;;;;6.98;70.27;95092.63;5157696;27;1241;-51
2023/01/11 13:26:58;;;;;;;;;;;;;;;6.98;71.11;95099.75;5158788;27;1901;-51
2023/01/11 13:29:32;;;;;;;;;;;;;;;6.98;70.86;95102.41;5158878;27;953;-50
2023/01/11 13:32:01;;;;;;;;;;;;;;;7.05;72.13;95100.88;5158946;27;1036;-52
2023/01/11 13:34:42;;;;;;;;;;;;;;;7.15;71.79;95099.06;5158524;27;1051;-52
2023/01/11 13:37:18;;;;;;;;;;;;;;;7.09;71.98;95104.06;5158641;27;1036;-51
2023/01/11 13:39:50;;;;;;;;;;;;;;;7.06;71.31;95099.03;5158550;27;980;-52
2023/01/11 13:42:20;;;;;;;;;;;;;;;6.92;71.89;95100.31;5140095;27;1027;-51
2023/01/11 13:44:50;;;;;;;;;;;;;;;6.98;70.91;95105.06;5158453;27;899;-52
2023/01/11 13:47:16;;;;;;;;;;;;;;;7.00;70.83;95109.28;5158237;27;1992;-52
2023/01/11 13:50:01;;;;;;;;;;;;;;;6.96;71.66;95107.00;5158191;27;1094;-52
2023/01/11 13:52:36;;;;;;;;;;;;;;;6.86;73.36;95103.53;5158064;27;1046;-51
2023/01/11 13:55:08;;;;;;;;;;;;;;;6.94;71.70;95107.16;5155550;27;1326;-52
2023/01/11 13:57:37;;;;;;;;;;;;;;;7.02;70.68;95106.47;5157862;27;1042;-52
2023/01/11 14:00:06;;;;;;;;;;;;;;;6.92;72.24;95108.28;5158025;27;1143;-52
2023/01/11 14:02:45;;;;;;;;;;;;;;;6.79;71.21;95112.06;5157929;27;1059;-52